Time;durP1;ratioP1;P1;durP2;ratioP2;P2;SDS_P1;SDS_P2;PMS_P1;PMS_P2;Temp;Humidity;BMP_temperature;BMP_pressure;BME280_temperature;BME280_humidity;BME280_pressure;Samples;Min_cycle;Max_cycle;Signal;HPM_P1;HPM_P2
2021/06/25 00:00:58;;;;;;;12.27;6.30;;;19.70;99.90;;;;;;4440841;32;20503;-61
2021/06/25 00:03:25;;;;;;;11.50;6.63;;;19.60;99.90;;;;;;4440812;32;20154;-61
2021/06/25 00:05:52;;;;;;;10.63;6.40;;;19.60;99.90;;;;;;4441357;32;20483;-61
2021/06/25 00:08:19;;;;;;;10.23;6.40;;;19.60;99.90;;;;;;4439636;32;20142;-61
2021/06/25 00:10:46;;;;;;;10.13;6.27;;;19.50;99.90;;;;;;4441217;32;20151;-61
2021/06/25 00:13:13;;;;;;;10.20;5.83;;;19.50;99.90;;;;;;4441232;32;20461;-62
2021/06/25 00:15:40;;;;;;;10.03;5.80;;;19.40;99.90;;;;;;4440809;32;20205;-62
2021/06/25 00:18:07;;;;;;;10.27;6.10;;;19.30;99.90;;;;;;4439768;32;20537;-62
2021/06/25 00:20:34;;;;;;;10.17;5.77;;;19.30;99.90;;;;;;4441174;32;20261;-61
2021/06/25 00:23:01;;;;;;;13.60;5.63;;;19.30;99.90;;;;;;4441150;32;20161;-62
2021/06/25 00:25:28;;;;;;;9.60;5.67;;;19.30;99.90;;;;;;4440886;32;20166;-61
2021/06/25 00:27:55;;;;;;;10.60;5.27;;;19.30;99.90;;;;;;4441044;32;20184;-61
2021/06/25 00:30:22;;;;;;;10.10;5.50;;;19.30;99.90;;;;;;4440913;32;20167;-61
2021/06/25 00:32:49;;;;;;;8.13;5.20;;;19.20;99.90;;;;;;4441351;32;20146;-62
2021/06/25 00:35:16;;;;;;;8.10;5.43;;;19.20;99.90;;;;;;4440957;32;20221;-61
2021/06/25 00:37:43;;;;;;;10.53;5.47;;;19.20;99.90;;;;;;4440982;32;20186;-61
2021/06/25 00:40:12;;;;;;;9.60;5.33;;;19.20;99.90;;;;;;4440834;32;20185;-61
2021/06/25 00:42:39;;;;;;;9.37;5.50;;;19.10;99.90;;;;;;4440388;32;20154;-62
2021/06/25 00:45:17;;;;;;;9.73;5.17;;;19.10;99.90;;;;;;4440772;32;20191;-62
2021/06/25 00:47:47;;;;;;;10.50;5.63;;;19.10;99.90;;;;;;4440999;32;20272;-62
2021/06/25 00:50:17;;;;;;;8.13;5.20;;;19.10;99.90;;;;;;4439108;32;20182;-62
2021/06/25 00:52:44;;;;;;;10.60;5.57;;;19.10;99.90;;;;;;4439382;32;20170;-62
2021/06/25 00:55:11;;;;;;;9.53;5.57;;;19.00;99.90;;;;;;4440624;32;20519;-61
2021/06/25 00:57:38;;;;;;;10.23;5.63;;;19.00;99.90;;;;;;4440569;32;20143;-62
2021/06/25 01:00:07;;;;;;;9.03;5.33;;;19.00;99.90;;;;;;4439827;32;20165;-62
2021/06/25 01:02:34;;;;;;;9.00;5.80;;;19.00;99.90;;;;;;4440528;32;20192;-62
2021/06/25 01:05:01;;;;;;;9.37;5.87;;;18.90;99.90;;;;;;4440745;32;20172;-62
2021/06/25 01:07:30;;;;;;;11.27;6.63;;;18.90;99.90;;;;;;4439806;32;20181;-62
2021/06/25 01:09:58;;;;;;;11.77;6.40;;;18.90;99.90;;;;;;4440419;32;20155;-62
2021/06/25 01:12:27;;;;;;;13.80;6.43;;;18.90;99.90;;;;;;4440492;32;20227;-62
2021/06/25 01:14:54;;;;;;;10.13;6.30;;;18.90;99.90;;;;;;4440608;32;20177;-62
2021/06/25 01:17:35;;;;;;;10.63;6.00;;;18.90;99.90;;;;;;4438959;32;20460;-62
2021/06/25 01:20:27;;;;;;;10.17;6.30;;;19.00;99.90;;;;;;4448500;32;20208;-62
2021/06/25 01:22:56;;;;;;;12.73;6.60;;;18.90;99.90;;;;;;4439622;32;20170;-62
2021/06/25 01:25:24;;;;;;;13.80;6.40;;;18.90;99.90;;;;;;4455728;32;20147;-62
2021/06/25 01:27:56;;;;;;;9.97;6.47;;;18.90;99.90;;;;;;4454981;32;20165;-62
2021/06/25 01:30:26;;;;;;;12.47;6.87;;;18.90;99.90;;;;;;4451778;32;20192;-62
2021/06/25 01:32:55;;;;;;;10.47;6.37;;;18.90;99.90;;;;;;4445446;32;20198;-62
2021/06/25 01:35:22;;;;;;;10.23;7.33;;;18.90;99.90;;;;;;4440216;32;20482;-61
2021/06/25 01:37:49;;;;;;;11.57;6.73;;;18.90;99.90;;;;;;4439833;32;20134;-62
2021/06/25 01:40:17;;;;;;;11.97;7.10;;;18.80;99.90;;;;;;4439940;32;20184;-62
2021/06/25 01:42:46;;;;;;;9.90;6.40;;;18.80;99.90;;;;;;4440042;32;20457;-62
2021/06/25 01:45:16;;;;;;;12.27;6.60;;;18.70;99.90;;;;;;4440056;32;20158;-62
2021/06/25 01:47:44;;;;;;;12.73;6.37;;;18.60;99.90;;;;;;4439943;32;20168;-62
2021/06/25 01:50:14;;;;;;;10.73;6.50;;;18.60;99.90;;;;;;4439834;32;20166;-62
2021/06/25 01:52:46;;;;;;;11.10;6.70;;;18.50;99.90;;;;;;4440399;32;20372;-61
2021/06/25 01:55:14;;;;;;;11.00;6.47;;;18.40;99.90;;;;;;4439875;32;20146;-62
2021/06/25 01:57:42;;;;;;;12.73;6.93;;;18.40;99.90;;;;;;4439917;32;20139;-62
2021/06/25 02:00:10;;;;;;;11.23;6.93;;;18.30;99.90;;;;;;4439817;32;20150;-62
2021/06/25 02:02:37;;;;;;;10.03;6.97;;;18.30;99.90;;;;;;4439756;32;20150;-62
2021/06/25 02:05:06;;;;;;;12.30;7.27;;;18.40;99.90;;;;;;4441395;32;20226;-61
2021/06/25 02:07:33;;;;;;;9.60;6.60;;;18.40;99.90;;;;;;4442793;32;20209;-61
2021/06/25 02:10:00;;;;;;;11.17;6.67;;;18.50;99.90;;;;;;4443192;32;20155;-61
2021/06/25 02:12:27;;;;;;;12.90;7.27;;;18.50;99.90;;;;;;4442153;32;20440;-61
2021/06/25 02:14:54;;;;;;;14.20;7.50;;;18.50;99.90;;;;;;4442738;32;20193;-61
2021/06/25 02:17:21;;;;;;;11.50;7.17;;;18.50;99.90;;;;;;4442809;32;20436;-61
2021/06/25 02:19:48;;;;;;;13.13;7.43;;;18.60;99.90;;;;;;4442682;32;20131;-61
2021/06/25 02:22:15;;;;;;;11.73;7.90;;;18.50;99.90;;;;;;4442729;32;20471;-61
2021/06/25 02:24:42;;;;;;;15.47;8.07;;;18.60;99.90;;;;;;4441545;32;20187;-61
2021/06/25 02:27:09;;;;;;;16.43;8.53;;;18.60;99.90;;;;;;4442667;32;20138;-61
2021/06/25 02:29:36;;;;;;;15.03;9.53;;;18.70;99.90;;;;;;4442227;32;20139;-61
2021/06/25 02:32:03;;;;;;;18.97;9.33;;;18.70;99.90;;;;;;4442484;32;20142;-61
2021/06/25 02:34:31;;;;;;;17.87;10.13;;;18.70;99.90;;;;;;4442594;32;20474;-61
2021/06/25 02:36:58;;;;;;;15.73;8.83;;;18.70;99.90;;;;;;4442157;32;20209;-61
2021/06/25 02:39:25;;;;;;;12.83;9.10;;;18.70;99.90;;;;;;4441928;32;20184;-61
2021/06/25 02:41:52;;;;;;;17.07;9.80;;;18.80;99.90;;;;;;4442477;32;20135;-61
2021/06/25 02:44:19;;;;;;;16.33;8.97;;;18.80;99.90;;;;;;4441029;32;20221;-61
2021/06/25 02:46:46;;;;;;;15.50;9.73;;;18.80;99.90;;;;;;4442419;32;20138;-61
2021/06/25 02:49:13;;;;;;;15.53;9.27;;;18.90;99.90;;;;;;4442398;32;20150;-61
2021/06/25 02:51:40;;;;;;;15.83;9.07;;;18.90;99.90;;;;;;4442286;32;20146;-61
2021/06/25 02:54:07;;;;;;;14.63;9.27;;;19.00;99.90;;;;;;4442245;32;20135;-61
2021/06/25 02:56:34;;;;;;;14.60;9.10;;;19.00;99.90;;;;;;4442319;32;20139;-61
2021/06/25 02:59:00;;;;;;;13.97;8.93;;;19.00;99.90;;;;;;4442144;32;20146;-61
2021/06/25 03:01:27;;;;;;;13.67;9.17;;;19.00;99.90;;;;;;4442206;32;20139;-61
2021/06/25 03:03:54;;;;;;;13.57;8.47;;;19.10;99.90;;;;;;4442181;32;20174;-61
2021/06/25 03:06:21;;;;;;;12.80;8.83;;;19.10;99.90;;;;;;4441381;32;20154;-61
2021/06/25 03:08:48;;;;;;;14.87;8.33;;;19.00;99.90;;;;;;4442188;32;20184;-61
2021/06/25 03:11:15;;;;;;;15.03;8.50;;;19.10;99.90;;;;;;4442050;32;20151;-61
2021/06/25 03:13:42;;;;;;;15.17;9.57;;;19.00;99.90;;;;;;4442058;32;20146;-61
2021/06/25 03:16:09;;;;;;;14.27;9.07;;;19.10;99.90;;;;;;4441228;32;20430;-61
2021/06/25 03:18:36;;;;;;;12.40;8.50;;;19.20;99.90;;;;;;4442011;32;20134;-61
2021/06/25 03:21:03;;;;;;;15.37;8.80;;;19.20;99.90;;;;;;4441084;32;20210;-61
2021/06/25 03:23:30;;;;;;;14.07;8.77;;;19.30;99.90;;;;;;4441993;32;20187;-61
2021/06/25 03:25:57;;;;;;;14.43;8.73;;;19.40;99.90;;;;;;4441978;32;20191;-61
2021/06/25 03:28:24;;;;;;;13.67;8.90;;;19.30;99.90;;;;;;4441831;32;20453;-61
2021/06/25 03:30:51;;;;;;;15.50;8.67;;;19.30;99.90;;;;;;4443818;32;20147;-61
2021/06/25 03:33:18;;;;;;;12.20;8.70;;;19.40;99.90;;;;;;4448776;32;20150;-61
2021/06/25 03:35:44;;;;;;;13.50;8.23;;;19.40;99.90;;;;;;4441793;32;20182;-61
2021/06/25 03:38:11;;;;;;;14.10;9.03;;;19.40;99.90;;;;;;4441735;32;20147;-61
2021/06/25 03:40:38;;;;;;;14.30;8.83;;;19.40;99.90;;;;;;4441684;32;20432;-61
2021/06/25 03:43:06;;;;;;;13.30;8.87;;;19.40;99.90;;;;;;4440516;32;20162;-61
2021/06/25 03:45:33;;;;;;;15.43;9.10;;;19.20;99.90;;;;;;4442018;32;20218;-61
2021/06/25 03:48:00;;;;;;;15.97;8.20;;;19.20;99.90;;;;;;4441589;32;20183;-61
2021/06/25 03:50:27;;;;;;;11.17;8.17;;;19.20;99.90;;;;;;4441711;32;20142;-61
2021/06/25 03:52:55;;;;;;;13.17;7.63;;;19.20;99.90;;;;;;4441494;32;20170;-61
2021/06/25 03:55:22;;;;;;;14.63;7.77;;;19.30;99.90;;;;;;4441428;32;20205;-61
2021/06/25 03:57:49;;;;;;;13.40;8.07;;;19.20;99.90;;;;;;4440899;32;20393;-61
2021/06/25 04:00:17;;;;;;;13.10;7.83;;;19.20;99.90;;;;;;4441269;32;20147;-61
2021/06/25 04:02:45;;;;;;;14.13;7.87;;;19.10;99.90;;;;;;4441739;32;20206;-61
2021/06/25 04:05:14;;;;;;;10.43;7.87;;;19.10;99.90;;;;;;4441195;32;20155;-61
2021/06/25 04:07:42;;;;;;;10.67;7.60;;;19.10;99.90;;;;;;4440679;32;20146;-61
2021/06/25 04:10:12;;;;;;;10.77;7.10;;;19.10;99.90;;;;;;4441176;32;20187;-61
2021/06/25 04:12:39;;;;;;;11.57;7.63;;;19.10;99.90;;;;;;4441130;32;20199;-61
2021/06/25 04:15:07;;;;;;;14.13;7.50;;;19.00;99.90;;;;;;4441490;32;20150;-61
2021/06/25 04:17:34;;;;;;;11.73;8.33;;;19.10;99.90;;;;;;4441090;32;20360;-61
2021/06/25 04:20:02;;;;;;;12.37;7.07;;;19.20;99.90;;;;;;4441060;32;20445;-61
2021/06/25 04:22:31;;;;;;;11.80;7.30;;;19.20;99.90;;;;;;4440931;32;20153;-62
2021/06/25 04:24:58;;;;;;;15.17;7.67;;;19.30;99.90;;;;;;4445531;32;20229;-61
2021/06/25 04:27:25;;;;;;;14.60;8.20;;;19.20;99.90;;;;;;4444513;32;20374;-61
2021/06/25 04:29:52;;;;;;;11.83;7.27;;;19.20;99.90;;;;;;4440338;32;20169;-62
2021/06/25 04:32:20;;;;;;;10.63;7.40;;;19.20;99.90;;;;;;4444316;32;20150;-60
2021/06/25 04:34:47;;;;;;;14.07;7.80;;;19.20;99.90;;;;;;4440838;32;20134;-63
2021/06/25 04:37:14;;;;;;;10.40;7.10;;;19.10;99.90;;;;;;4439491;32;20249;-60
2021/06/25 04:39:41;;;;;;;9.33;6.90;;;19.00;99.90;;;;;;4440727;32;20139;-60
2021/06/25 04:42:12;;;;;;;11.33;6.90;;;19.00;99.90;;;;;;4444121;32;20203;-60
2021/06/25 04:44:39;;;;;;;13.00;7.83;;;19.20;99.90;;;;;;4456119;32;20160;-60
2021/06/25 04:47:07;;;;;;;12.53;7.77;;;19.20;99.90;;;;;;4455705;32;20142;-60
2021/06/25 04:49:38;;;;;;;13.17;7.90;;;19.20;99.90;;;;;;4456053;32;20195;-60
2021/06/25 04:52:06;;;;;;;15.53;8.33;;;19.20;99.90;;;;;;4455889;32;20629;-60
2021/06/25 04:54:34;;;;;;;12.53;8.20;;;19.20;99.90;;;;;;4454571;32;20197;-60
2021/06/25 04:57:01;;;;;;;12.87;7.67;;;19.30;99.90;;;;;;4455908;32;20482;-60
2021/06/25 04:59:28;;;;;;;12.07;7.83;;;19.40;99.90;;;;;;4456098;32;20199;-60
2021/06/25 05:01:55;;;;;;;11.87;7.90;;;19.50;99.90;;;;;;4454768;32;20181;-65
2021/06/25 05:04:22;;;;;;;12.07;8.20;;;19.70;99.90;;;;;;4455922;32;20143;-65
2021/06/25 05:06:49;;;;;;;12.97;8.07;;;19.80;99.90;;;;;;4456048;32;20138;-65
2021/06/25 05:09:16;;;;;;;14.40;8.10;;;19.80;99.90;;;;;;4456117;32;20146;-68
2021/06/25 05:11:44;;;;;;;13.83;8.80;;;19.90;99.90;;;;;;4452561;32;20470;-68
2021/06/25 05:14:11;;;;;;;13.43;8.17;;;20.10;99.90;;;;;;4437148;32;20200;-69
2021/06/25 05:16:38;;;;;;;13.47;8.80;;;20.10;99.90;;;;;;4446891;32;20146;-69
2021/06/25 05:19:05;;;;;;;13.30;8.27;;;20.10;99.90;;;;;;4439613;32;20556;-68
2021/06/25 05:21:32;;;;;;;13.80;8.20;;;20.00;99.90;;;;;;4438832;32;20179;-69
2021/06/25 05:23:59;;;;;;;12.00;8.43;;;19.90;99.90;;;;;;4438080;32;20147;-69
2021/06/25 05:26:26;;;;;;;18.13;9.10;;;19.90;99.90;;;;;;4439007;32;20146;-68
2021/06/25 05:28:53;;;;;;;17.63;9.20;;;19.90;99.90;;;;;;4438891;32;20163;-68
2021/06/25 05:31:20;;;;;;;12.77;8.63;;;19.70;99.90;;;;;;4438893;32;20475;-69
2021/06/25 05:33:47;;;;;;;13.87;9.03;;;19.80;99.90;;;;;;4440368;32;20142;-69
2021/06/25 05:36:14;;;;;;;16.43;9.53;;;19.90;99.90;;;;;;4439554;32;20176;-69
2021/06/25 05:38:41;;;;;;;16.13;9.07;;;19.80;99.90;;;;;;4438619;32;20192;-69
2021/06/25 05:41:08;;;;;;;16.83;10.03;;;19.80;99.90;;;;;;4438632;32;20134;-69
2021/06/25 05:43:35;;;;;;;16.30;9.50;;;19.80;99.90;;;;;;4437702;32;20206;-69
2021/06/25 05:46:03;;;;;;;17.20;10.60;;;20.00;99.90;;;;;;4438340;32;20173;-69
2021/06/25 05:48:30;;;;;;;20.27;9.93;;;20.00;99.90;;;;;;4439921;32;20161;-69
2021/06/25 05:50:57;;;;;;;14.77;10.00;;;20.10;99.90;;;;;;4438657;32;20160;-69
2021/06/25 05:53:25;;;;;;;16.57;10.13;;;20.10;99.90;;;;;;4440312;32;20198;-69
2021/06/25 05:55:52;;;;;;;16.83;10.10;;;20.10;99.90;;;;;;4438684;32;20134;-69
2021/06/25 05:58:19;;;;;;;15.60;9.97;;;20.20;99.90;;;;;;4439977;32;20139;-69
2021/06/25 06:00:45;;;;;;;15.83;9.97;;;20.30;99.90;;;;;;4440119;32;20163;-70
2021/06/25 06:03:12;;;;;;;16.40;10.57;;;20.40;99.90;;;;;;4440367;32;20158;-69
2021/06/25 06:05:40;;;;;;;17.33;11.43;;;20.30;99.90;;;;;;4438699;32;20460;-69
2021/06/25 06:08:06;;;;;;;16.33;11.23;;;20.30;99.90;;;;;;4438475;32;20206;-69
2021/06/25 06:10:34;;;;;;;18.47;11.60;;;20.30;99.90;;;;;;4439740;32;20418;-69
2021/06/25 06:13:02;;;;;;;17.63;11.40;;;20.20;99.90;;;;;;4438504;32;20188;-69
2021/06/25 06:15:29;;;;;;;22.80;11.37;;;20.10;99.90;;;;;;4439262;32;20198;-69
2021/06/25 06:17:58;;;;;;;25.80;13.40;;;20.20;99.90;;;;;;4438328;32;20161;-68
2021/06/25 06:20:26;;;;;;;21.23;12.53;;;20.40;99.90;;;;;;4438252;32;20182;-68
2021/06/25 06:31:21;;;;;;;30.53;19.00;;;20.90;99.90;;;;;;4440120;32;20177;-69
2021/06/25 06:36:30;;;;;;;31.83;17.80;;;20.70;99.90;;;;;;4438370;32;20147;-69
2021/06/25 06:38:59;;;;;;;28.20;18.50;;;20.80;99.90;;;;;;4439806;32;20206;-69
2021/06/25 06:41:27;;;;;;;31.33;18.87;;;20.90;99.90;;;;;;4439585;32;20261;-69
2021/06/25 06:43:55;;;;;;;39.17;22.60;;;20.80;99.90;;;;;;4438321;32;20147;-68
2021/06/25 06:46:22;;;;;;;32.73;22.60;;;20.80;99.90;;;;;;4439676;32;20146;-69
2021/06/25 06:48:49;;;;;;;38.53;24.70;;;20.80;99.90;;;;;;4438567;32;20158;-67
2021/06/25 06:51:18;;;;;;;41.70;25.70;;;21.00;99.90;;;;;;4438700;32;20142;-68
2021/06/25 06:53:45;;;;;;;43.37;26.63;;;21.00;99.90;;;;;;4442320;32;20169;-69
2021/06/25 06:56:17;;;;;;;45.20;24.70;;;20.90;99.90;;;;;;4440841;32;20221;-69
2021/06/25 06:58:48;;;;;;;40.23;23.53;;;20.80;99.90;;;;;;4440690;32;20215;-69
2021/06/25 07:01:15;;;;;;;41.17;25.47;;;20.90;99.90;;;;;;4442324;32;20212;-69
2021/06/25 07:04:03;;;;;;;42.80;25.70;;;20.90;99.90;;;;;;4440668;32;20134;-69
2021/06/25 07:06:29;;;;;;;38.53;23.67;;;20.70;99.90;;;;;;4441356;32;20188;-69
2021/06/25 07:08:56;;;;;;;45.77;28.13;;;20.80;99.90;;;;;;4442247;32;20183;-69
2021/06/25 07:11:23;;;;;;;43.47;27.93;;;20.90;99.90;;;;;;4442029;32;20154;-69
2021/06/25 07:13:51;;;;;;;48.70;29.83;;;21.20;99.90;;;;;;4441957;32;20187;-69
2021/06/25 07:16:19;;;;;;;52.63;30.43;;;21.30;99.90;;;;;;4440600;32;20159;-69
2021/06/25 07:18:47;;;;;;;52.37;31.47;;;21.40;99.90;;;;;;4441795;32;20170;-69
2021/06/25 07:21:15;;;;;;;48.87;31.10;;;21.50;99.90;;;;;;4440385;32;20157;-69
2021/06/25 07:23:42;;;;;;;46.97;29.47;;;21.50;99.90;;;;;;4442166;32;20161;-69
2021/06/25 07:26:09;;;;;;;47.83;30.43;;;21.70;99.90;;;;;;4441935;32;20142;-69
2021/06/25 07:28:36;;;;;;;49.77;30.60;;;21.70;99.90;;;;;;4439782;32;20200;-69
2021/06/25 07:31:03;;;;;;;46.60;28.73;;;21.80;99.90;;;;;;4439778;32;20213;-68
2021/06/25 07:33:31;;;;;;;46.00;29.00;;;21.60;99.90;;;;;;4441997;32;20250;-69
2021/06/25 07:35:58;;;;;;;44.47;29.10;;;21.50;99.90;;;;;;4440242;32;20127;-68
2021/06/25 07:38:26;;;;;;;45.20;28.50;;;21.60;99.90;;;;;;4439993;32;20131;-68
2021/06/25 07:40:53;;;;;;;47.40;28.53;;;21.70;99.90;;;;;;4440447;32;20214;-68
2021/06/25 07:43:20;;;;;;;49.00;29.80;;;21.40;99.90;;;;;;4439791;32;20166;-68
2021/06/25 07:45:47;;;;;;;46.43;29.23;;;21.30;99.90;;;;;;4439947;32;20165;-68
2021/06/25 07:48:15;;;;;;;47.77;29.63;;;21.20;99.90;;;;;;4441509;32;20150;-68
2021/06/25 07:50:42;;;;;;;50.57;30.37;;;21.40;99.90;;;;;;4440863;32;20369;-68
2021/06/25 07:53:10;;;;;;;49.13;30.53;;;21.20;99.90;;;;;;4439466;32;20301;-68
2021/06/25 07:55:44;;;;;;;49.30;30.60;;;21.40;99.90;;;;;;4439983;32;20193;-68
2021/06/25 07:58:13;;;;;;;51.80;31.80;;;21.50;99.90;;;;;;4441936;32;20201;-68
2021/06/25 08:00:40;;;;;;;50.10;30.73;;;21.70;99.90;;;;;;4441490;32;20134;-68
2021/06/25 08:03:08;;;;;;;46.97;30.37;;;21.70;99.90;;;;;;4439607;32;20142;-67
2021/06/25 08:05:36;;;;;;;49.43;31.60;;;21.90;99.90;;;;;;4441506;32;20142;-67
2021/06/25 08:08:04;;;;;;;52.77;31.93;;;22.10;99.90;;;;;;4438253;32;20587;-67
2021/06/25 08:10:31;;;;;;;48.57;30.17;;;21.90;99.90;;;;;;4440814;32;20142;-67
2021/06/25 08:12:59;;;;;;;47.50;29.57;;;21.90;99.90;;;;;;4441355;32;20173;-68
2021/06/25 08:15:26;;;;;;;50.97;30.80;;;22.20;99.90;;;;;;4439357;32;20471;-68
2021/06/25 08:17:53;;;;;;;45.57;29.77;;;22.20;99.90;;;;;;4439722;32;20535;-68
2021/06/25 08:20:20;;;;;;;51.53;32.00;;;22.50;99.90;;;;;;4439512;32;20214;-68
2021/06/25 08:22:48;;;;;;;50.33;30.60;;;22.50;99.90;;;;;;4439749;32;20169;-67
2021/06/25 08:25:14;;;;;;;48.83;31.23;;;22.70;99.90;;;;;;4439572;32;20154;-68
2021/06/25 08:27:41;;;;;;;41.33;28.60;;;22.70;99.90;;;;;;4441322;32;20138;-68
2021/06/25 08:30:09;;;;;;;40.78;27.92;;;23.30;99.90;;;;;;4439569;32;20217;-68
2021/06/25 08:32:37;;;;;;;41.50;28.35;;;24.00;99.90;;;;;;4439686;32;20468;-68
2021/06/25 08:35:06;;;;;;;40.97;27.52;;;24.70;99.90;;;;;;4439791;32;20135;-69
2021/06/25 08:37:33;;;;;;;52.33;34.40;;;25.20;99.90;;;;;;4439353;32;20181;-68
2021/06/25 08:40:00;;;;;;;50.58;33.15;;;24.90;99.90;;;;;;4441130;32;20218;-68
2021/06/25 08:42:28;;;;;;;60.60;39.65;;;24.80;99.90;;;;;;4440848;32;20138;-68
2021/06/25 08:44:58;;;;;;;57.53;37.50;;;24.30;99.90;;;;;;4439974;32;20396;-68
2021/06/25 08:47:26;;;;;;;59.38;37.58;;;24.20;99.90;;;;;;4440892;32;20165;-69
2021/06/25 08:50:04;;;;;;;55.78;37.03;;;24.20;99.90;;;;;;4440693;32;20274;-68
2021/06/25 08:52:30;;;;;;;58.22;36.80;;;24.40;99.90;;;;;;4439260;32;20155;-68
2021/06/25 08:54:58;;;;;;;51.53;34.30;;;24.50;99.90;;;;;;4439356;32;20209;-69
2021/06/25 08:57:25;;;;;;;54.60;36.17;;;24.60;99.90;;;;;;4439076;32;20188;-68
2021/06/25 08:59:52;;;;;;;53.80;36.95;;;24.60;99.90;;;;;;4439428;32;20191;-69
2021/06/25 09:02:19;;;;;;;52.45;35.38;;;24.50;99.90;;;;;;4440454;32;20396;-69
2021/06/25 09:04:47;;;;;;;51.15;33.88;;;24.50;99.90;;;;;;4440513;32;20235;-69
2021/06/25 09:07:14;;;;;;;52.37;35.40;;;24.60;99.90;;;;;;4438978;32;20232;-69
2021/06/25 09:09:46;;;;;;;53.15;36.30;;;24.70;99.90;;;;;;4440567;32;20146;-68
2021/06/25 09:12:23;;;;;;;53.30;36.22;;;24.30;99.90;;;;;;4438820;32;20200;-68
2021/06/25 09:15:11;;;;;;;51.20;35.20;;;24.10;99.90;;;;;;4439915;32;20142;-68
2021/06/25 09:18:01;;;;;;;50.25;35.25;;;24.00;99.90;;;;;;4440445;32;20516;-68
2021/06/25 09:20:32;;;;;;;49.90;34.85;;;24.20;99.90;;;;;;4440471;32;20134;-68
2021/06/25 09:22:59;;;;;;;53.97;35.75;;;23.90;99.90;;;;;;4438503;32;20230;-68
2021/06/25 09:25:26;;;;;;;53.63;35.83;;;23.90;99.90;;;;;;4438584;32;20173;-68
2021/06/25 09:27:56;;;;;;;50.92;34.70;;;23.80;99.90;;;;;;4438491;32;20468;-69
2021/06/25 09:30:26;;;;;;;52.20;34.58;;;23.90;99.90;;;;;;4438544;32;20134;-69
2021/06/25 09:32:53;;;;;;;51.55;34.05;;;23.50;99.90;;;;;;4439944;32;20158;-68
2021/06/25 09:35:23;;;;;;;49.35;33.58;;;23.50;99.90;;;;;;4438764;32;20191;-68
2021/06/25 09:37:53;;;;;;;49.25;32.13;;;23.30;99.90;;;;;;4437590;32;20130;-68
2021/06/25 09:40:21;;;;;;;47.28;30.75;;;23.50;99.90;;;;;;4440162;32;20174;-69
2021/06/25 09:43:09;;;;;;;48.85;31.95;;;23.60;99.90;;;;;;4439788;32;20189;-68
2021/06/25 09:45:47;;;;;;;44.72;28.55;;;23.70;99.90;;;;;;4439418;32;20189;-68
2021/06/25 09:48:14;;;;;;;42.77;28.20;;;23.60;99.90;;;;;;4440415;32;20181;-69
2021/06/25 09:50:43;;;;;;;45.03;29.08;;;23.90;99.90;;;;;;4438744;32;20164;-68
2021/06/25 09:53:10;;;;;;;42.27;27.67;;;24.10;99.90;;;;;;4438054;32;20548;-69
2021/06/25 09:55:56;;;;;;;46.97;29.77;;;23.90;99.90;;;;;;4440051;32;20373;-68
2021/06/25 10:01:22;;;;;;;44.08;28.70;;;24.00;99.90;;;;;;4438754;32;20191;-68
2021/06/25 10:03:56;;;;;;;48.17;28.80;;;24.10;99.90;;;;;;4440671;32;20201;-68
2021/06/25 10:06:31;;;;;;;43.85;28.92;;;24.00;99.90;;;;;;4440080;32;20161;-68
2021/06/25 10:08:59;;;;;;;40.00;26.87;;;24.20;99.90;;;;;;4440373;32;20150;-68
2021/06/25 10:11:29;;;;;;;39.17;26.27;;;24.60;99.90;;;;;;4438849;32;20138;-68
2021/06/25 10:13:58;;;;;;;42.60;27.80;;;25.10;99.90;;;;;;4438590;32;20495;-68
2021/06/25 10:16:27;;;;;;;47.03;28.77;;;24.90;99.90;;;;;;4440173;32;20155;-68
2021/06/25 10:18:59;;;;;;;44.55;26.50;;;24.90;99.90;;;;;;4438634;32;20401;-68
2021/06/25 10:21:31;;;;;;;39.22;26.30;;;25.10;99.90;;;;;;4440237;32;20145;-68
2021/06/25 10:24:01;;;;;;;39.88;25.75;;;25.50;99.90;;;;;;4438582;32;20131;-68
2021/06/25 10:26:29;;;;;;;38.63;25.85;;;25.80;99.90;;;;;;4440576;32;20135;-68
2021/06/25 10:28:56;;;;;;;38.17;27.33;;;26.00;99.90;;;;;;4441513;32;20273;-68
2021/06/25 10:31:25;;;;;;;42.20;27.42;;;25.60;99.90;;;;;;4441493;32;20158;-68
2021/06/25 10:33:54;;;;;;;37.80;25.27;;;25.00;99.90;;;;;;4442809;32;20217;-69
2021/06/25 10:36:31;;;;;;;40.25;28.00;;;24.90;99.90;;;;;;4442982;32;20226;-69
2021/06/25 10:39:24;;;;;;;42.08;28.30;;;24.80;99.90;;;;;;4442239;32;20421;-68
2021/06/25 10:41:57;;;;;;;40.30;26.92;;;24.50;99.90;;;;;;4441088;32;20225;-68
2021/06/25 10:44:37;;;;;;;40.20;26.70;;;24.60;99.90;;;;;;4441262;32;20146;-68
2021/06/25 10:47:27;;;;;;;42.70;28.30;;;24.60;99.90;;;;;;4443045;32;20184;-68
2021/06/25 10:52:29;;;;;;;37.72;26.15;;;24.40;99.90;;;;;;4442008;32;20217;-68
2021/06/25 10:55:09;;;;;;;37.13;25.92;;;24.60;99.90;;;;;;4439667;32;20143;-68
2021/06/25 10:57:57;;;;;;;37.00;25.62;;;24.80;99.90;;;;;;4442255;32;20169;-68
2021/06/25 11:00:51;;;;;;;38.70;25.48;;;25.10;99.90;;;;;;4430380;32;20226;-68
2021/06/25 11:03:44;;;;;;;33.92;23.85;;;25.20;99.90;;;;;;4441446;32;20225;-68
2021/06/25 11:06:50;;;;;;;34.30;23.50;;;25.90;99.90;;;;;;4441042;32;20437;-69
2021/06/25 11:09:17;;;;;;;34.55;23.92;;;26.70;99.90;;;;;;4379736;32;20272;-69
2021/06/25 11:11:44;;;;;;;33.70;23.10;;;27.00;99.90;;;;;;4377306;32;20175;-69
2021/06/25 11:14:25;;;;;;;31.48;22.90;;;28.10;99.90;;;;;;4378549;32;20248;-69
2021/06/25 11:16:52;;;;;;;31.12;22.48;;;28.00;99.90;;;;;;4377485;32;20513;-68
2021/06/25 11:19:39;;;;;;;29.30;21.75;;;28.70;99.90;;;;;;4377447;32;20140;-69
2021/06/25 11:22:36;;;;;;;35.28;23.70;;;29.20;99.90;;;;;;4377780;32;20175;-67
2021/06/25 11:25:03;;;;;;;32.65;22.65;;;28.50;99.90;;;;;;4377631;32;20198;-68
2021/06/25 11:28:07;;;;;;;28.10;21.48;;;27.70;99.90;;;;;;4377716;32;20148;-67
2021/06/25 11:31:02;;;;;;;29.33;21.42;;;28.30;99.90;;;;;;4378985;32;20143;-67
2021/06/25 11:33:34;;;;;;;31.12;22.75;;;29.00;99.90;;;;;;4377569;32;20544;-68
2021/06/25 11:36:13;;;;;;;27.17;20.65;;;29.10;99.90;;;;;;4378998;32;20183;-68
2021/06/25 11:39:09;;;;;;;28.62;21.65;;;29.30;99.90;;;;;;4376923;32;20140;-68
2021/06/25 11:41:44;;;;;;;24.65;18.87;;;29.60;99.90;;;;;;4440295;32;20151;-68
2021/06/25 11:44:20;;;;;;;24.52;19.37;;;30.10;99.90;;;;;;4440595;32;20150;-68
2021/06/25 11:47:16;;;;;;;26.73;19.12;;;29.90;99.90;;;;;;4440463;32;20506;-68
2021/06/25 11:52:25;;;;;;;25.30;19.45;;;29.60;99.90;;;;;;4439165;32;20143;-68
2021/06/25 11:54:53;;;;;;;27.50;20.42;;;30.10;99.90;;;;;;4438958;32;20143;-68
2021/06/25 11:57:25;;;;;;;31.05;20.12;;;29.50;99.90;;;;;;4440483;32;20145;-68
2021/06/25 11:59:55;;;;;;;29.10;22.17;;;29.30;99.90;;;;;;4440535;32;20177;-68
2021/06/25 12:02:22;;;;;;;28.90;22.33;;;28.30;99.90;;;;;;4439473;32;20178;-67
2021/06/25 12:04:49;;;;;;;34.10;22.95;;;27.60;99.90;;;;;;4439101;32;20154;-68
2021/06/25 12:07:18;;;;;;;30.12;22.13;;;27.30;99.90;;;;;;4438710;32;20146;-67
2021/06/25 12:09:50;;;;;;;27.45;20.73;;;27.00;99.90;;;;;;4438657;32;20138;-67
2021/06/25 12:12:23;;;;;;;28.25;20.35;;;26.60;99.90;;;;;;4439278;32;20211;-67
2021/06/25 12:14:53;;;;;;;26.52;20.33;;;26.40;99.90;;;;;;4440407;32;20184;-68
2021/06/25 12:17:21;;;;;;;27.70;21.58;;;26.50;99.90;;;;;;4439598;32;20138;-68
2021/06/25 12:19:56;;;;;;;28.95;20.85;;;26.30;99.90;;;;;;4439243;32;20142;-68
2021/06/25 12:22:23;;;;;;;28.42;22.55;;;26.30;99.90;;;;;;4440080;32;20476;-68
2021/06/25 12:24:52;;;;;;;28.08;21.08;;;26.40;99.90;;;;;;4439164;32;20415;-68
2021/06/25 12:27:32;;;;;;;28.73;22.45;;;26.40;99.90;;;;;;4438130;32;20432;-67
2021/06/25 12:30:13;;;;;;;30.58;21.00;;;26.20;99.90;;;;;;4438776;32;20134;-69
2021/06/25 12:32:40;;;;;;;31.62;22.42;;;25.90;99.90;;;;;;4438885;32;20143;-68
2021/06/25 12:35:08;;;;;;;33.20;21.77;;;25.80;99.90;;;;;;4437997;32;20523;-68
2021/06/25 12:37:46;;;;;;;30.23;20.88;;;25.80;99.90;;;;;;4437948;32;20139;-67
2021/06/25 12:40:34;;;;;;;32.05;21.98;;;25.80;99.90;;;;;;4438743;32;20397;-67
2021/06/25 12:43:01;;;;;;;34.08;21.17;;;26.00;99.90;;;;;;4439657;32;20208;-69
2021/06/25 12:45:38;;;;;;;27.20;20.50;;;26.00;99.90;;;;;;4440539;32;20218;-68
2021/06/25 12:48:13;;;;;;;27.27;20.95;;;26.10;99.90;;;;;;4439569;32;20164;-68
2021/06/25 12:50:41;;;;;;;34.13;23.33;;;25.60;99.90;;;;;;4438254;32;20172;-68
2021/06/25 12:53:22;;;;;;;33.55;24.00;;;25.20;99.90;;;;;;4440204;32;20203;-67
2021/06/25 12:55:50;;;;;;;35.65;23.98;;;24.90;99.90;;;;;;4440709;32;20191;-68
2021/06/25 12:58:19;;;;;;;36.42;24.63;;;24.80;99.90;;;;;;4440439;32;20240;-68
2021/06/25 13:00:53;;;;;;;35.88;25.35;;;24.50;99.90;;;;;;4438861;32;20531;-68
2021/06/25 13:03:21;;;;;;;37.85;26.27;;;24.30;99.90;;;;;;4441311;32;20471;-68
2021/06/25 13:05:47;;;;;;;39.70;25.65;;;23.90;99.90;;;;;;4438001;32;20534;-67